createdAt,value
2019-04-22T00:00:32.964Z,8.10
2019-04-22T00:03:02.807Z,7.90
2019-04-22T00:05:52.787Z,7.80
2019-04-22T00:08:16.729Z,7.80
2019-04-22T00:10:54.194Z,7.70
2019-04-22T00:13:26.183Z,7.60
2019-04-22T00:15:41.785Z,7.60
2019-04-22T00:18:23.055Z,7.70
2019-04-22T00:20:52.707Z,7.70
2019-04-22T00:23:13.180Z,8.30
2019-04-22T00:25:48.312Z,8.40
2019-04-22T00:28:19.978Z,8.40
2019-04-22T00:30:40.662Z,8.50
2019-04-22T00:33:18.692Z,9.00
2019-04-22T00:35:48.127Z,9.20
2019-04-22T00:38:19.857Z,9.20
2019-04-22T00:40:46.164Z,9.30
2019-04-22T00:43:13.903Z,9.30
2019-04-22T00:45:43.178Z,9.30
2019-04-22T00:48:17.912Z,9.30
2019-04-22T00:50:49.620Z,9.30
2019-04-22T00:53:16.338Z,9.10
2019-04-22T00:56:11.302Z,9.00
2019-04-22T00:58:43.894Z,8.90
2019-04-22T01:01:17.424Z,8.80
2019-04-22T01:03:42.743Z,8.60
2019-04-22T01:06:11.956Z,8.40
2019-04-22T01:08:40.274Z,8.20
2019-04-22T01:11:13.437Z,8.00
2019-04-22T01:13:30.432Z,7.80
2019-04-22T01:16:06.826Z,7.70
2019-04-22T01:18:29.338Z,7.50
2019-04-22T01:21:16.410Z,7.50
2019-04-22T01:23:28.205Z,7.40
2019-04-22T01:25:59.643Z,7.20
2019-04-22T01:28:23.966Z,7.10
2019-04-22T01:30:46.916Z,7.10
2019-04-22T01:33:16.892Z,7.10
2019-04-22T01:35:56.372Z,7.00
2019-04-22T01:38:23.541Z,7.00
2019-04-22T01:41:05.329Z,6.90
2019-04-22T01:43:32.818Z,6.80
2019-04-22T01:46:02.621Z,6.90
2019-04-22T01:48:26.879Z,6.70
2019-04-22T01:50:54.904Z,6.60
2019-04-22T01:53:27.515Z,6.50
2019-04-22T01:55:55.062Z,6.40
2019-04-22T01:58:18.419Z,6.30
2019-04-22T02:00:56.131Z,6.30
2019-04-22T02:03:26.535Z,6.20
2019-04-22T02:05:52.160Z,6.20
2019-04-22T02:08:23.395Z,6.10
2019-04-22T02:10:54.965Z,6.10
2019-04-22T02:13:23.749Z,6.00
2019-04-22T02:15:47.808Z,6.00
2019-04-22T02:20:43.008Z,6.00
2019-04-22T02:23:45.179Z,6.00
2019-04-22T02:26:03.951Z,5.90
2019-04-22T02:28:32.566Z,5.90
2019-04-22T02:31:13.998Z,5.90
2019-04-22T02:36:08.181Z,5.90
2019-04-22T02:43:33.996Z,5.60
2019-04-22T02:46:07.813Z,5.60
2019-04-22T02:48:40.136Z,5.50
2019-04-22T02:50:54.835Z,5.50
2019-04-22T02:53:38.502Z,5.30
2019-04-22T02:55:54.744Z,5.30
2019-04-22T02:58:27.711Z,5.20
2019-04-22T03:00:58.918Z,5.10
2019-04-22T03:05:56.657Z,5.00
2019-04-22T03:10:57.046Z,5.00
2019-04-22T03:13:34.848Z,5.00
2019-04-22T03:15:51.258Z,4.90
2019-04-22T03:18:20.363Z,4.90
2019-04-22T03:20:50.279Z,4.90
2019-04-22T03:26:00.477Z,4.90
2019-04-22T03:28:08.791Z,4.90
2019-04-22T03:35:45.024Z,4.90
2019-04-22T03:40:46.941Z,4.90
2019-04-22T03:43:26.308Z,4.80
2019-04-22T03:45:30.253Z,4.80
2019-04-22T03:48:47.423Z,4.70
2019-04-22T03:53:09.489Z,4.60
2019-04-22T03:55:41.201Z,4.50
2019-04-22T03:58:18.975Z,4.40
2019-04-22T04:05:49.640Z,4.30
2019-04-22T04:15:34.691Z,4.20
2019-04-22T04:17:55.035Z,4.20
2019-04-22T04:20:32.450Z,4.20
2019-04-22T04:23:24.411Z,4.30
2019-04-22T04:28:24.304Z,4.40
2019-04-22T04:30:29.978Z,4.50
2019-04-22T04:35:32.876Z,4.60
2019-04-22T04:40:37.722Z,4.70
2019-04-22T04:45:33.774Z,4.80
2019-04-22T04:50:51.025Z,5.10
2019-04-22T04:55:28.516Z,5.40
2019-04-22T04:57:54.439Z,5.60
2019-04-22T05:05:31.736Z,6.10
2019-04-22T05:07:56.630Z,6.20
2019-04-22T05:15:12.011Z,6.60
2019-04-22T05:20:12.899Z,6.80
2019-04-22T05:22:34.051Z,7.00
2019-04-22T05:25:04.729Z,7.20
2019-04-22T05:27:34.653Z,7.30
2019-04-22T05:32:24.600Z,7.70
2019-04-22T05:34:52.843Z,7.80
2019-04-22T05:37:27.339Z,8.00
2019-04-22T05:39:51.372Z,8.20
2019-04-22T05:42:21.291Z,8.20
2019-04-22T05:44:52.832Z,8.50
2019-04-22T05:47:22.580Z,8.70
2019-04-22T05:49:47.720Z,8.90
2019-04-22T05:52:18.402Z,9.10
2019-04-22T05:54:47.110Z,9.40
2019-04-22T05:57:17.957Z,9.60
2019-04-22T05:59:46.240Z,10.00
2019-04-22T06:04:45.011Z,11.80
2019-04-22T06:07:06.557Z,13.00
2019-04-22T06:09:46.782Z,14.30
2019-04-22T06:12:10.698Z,15.70
2019-04-22T06:14:37.093Z,17.00
2019-04-22T06:17:20.231Z,17.60
2019-04-22T06:19:44.383Z,18.20
2019-04-22T06:22:23.864Z,18.70
2019-04-22T06:24:43.726Z,19.90
2019-04-22T06:27:19.132Z,20.80
2019-04-22T06:29:38.260Z,21.20
2019-04-22T06:32:23.327Z,22.40
2019-04-22T06:39:40.103Z,19.20
2019-04-22T06:42:07.974Z,19.80
2019-04-22T06:44:36.495Z,19.50
2019-04-22T06:47:05.587Z,20.60
2019-04-22T06:49:35.520Z,21.00
2019-04-22T06:52:11.671Z,21.60
2019-04-22T06:54:37.483Z,20.40
2019-04-22T06:57:04.305Z,20.70
2019-04-22T06:59:32.693Z,21.00
2019-04-22T07:02:02.207Z,20.70
2019-04-22T07:04:29.773Z,22.00
2019-04-22T07:07:05.357Z,21.30
2019-04-22T07:12:02.432Z,20.30
2019-04-22T07:14:22.333Z,20.20
2019-04-22T07:16:56.112Z,20.60
2019-04-22T07:19:28.461Z,20.50
2019-04-22T07:21:57.697Z,19.60
2019-04-22T07:26:54.603Z,20.20
2019-04-22T07:29:23.638Z,20.30
2019-04-22T07:31:56.257Z,19.90
2019-04-22T07:34:40.770Z,20.60
2019-04-22T07:36:56.618Z,20.70
2019-04-22T07:39:15.632Z,20.10
2019-04-22T07:41:47.482Z,20.80
2019-04-22T07:44:19.893Z,21.50
2019-04-22T07:46:53.884Z,24.10
2019-04-22T07:49:18.394Z,25.30
2019-04-22T07:51:44.502Z,25.90
2019-04-22T07:54:16.280Z,24.40
2019-04-22T07:56:48.060Z,24.80
2019-04-22T07:59:15.598Z,26.20
2019-04-22T08:01:42.778Z,26.70
2019-04-22T08:06:46.085Z,27.40
2019-04-22T08:09:14.152Z,28.70
2019-04-22T08:11:51.310Z,28.30
2019-04-22T08:14:07.581Z,28.00
2019-04-22T08:16:37.709Z,28.20
2019-04-22T08:19:08.884Z,28.10
2019-04-22T08:21:44.326Z,27.50
2019-04-22T08:24:07.809Z,26.50
2019-04-22T08:26:38.225Z,26.30
2019-04-22T08:29:12.156Z,24.60
2019-04-22T08:31:35.678Z,24.00
2019-04-22T08:34:08.165Z,24.30
2019-04-22T08:36:31.571Z,25.70
2019-04-22T08:39:04.480Z,26.60
2019-04-22T08:44:04.969Z,26.40
2019-04-22T08:46:33.155Z,24.70
2019-04-22T08:48:59.897Z,24.70
2019-04-22T08:51:48.874Z,24.60
2019-04-22T08:54:00.231Z,24.20
2019-04-22T08:56:32.245Z,24.20
2019-04-22T08:59:02.053Z,23.20
2019-04-22T09:03:58.122Z,23.30
2019-04-22T09:06:39.978Z,23.80
2019-04-22T09:08:55.329Z,25.20
2019-04-22T09:11:29.666Z,26.10
2019-04-22T09:16:30.239Z,26.90
2019-04-22T09:18:48.695Z,25.40
2019-04-22T09:23:53.896Z,26.10
2019-04-22T09:26:23.983Z,27.10
2019-04-22T09:28:52.270Z,26.60
2019-04-22T09:31:18.987Z,26.00
2019-04-22T09:33:46.535Z,25.20
2019-04-22T09:36:22.388Z,24.80
2019-04-22T09:41:18.781Z,24.80
2019-04-22T09:46:15.155Z,25.70
2019-04-22T09:48:43.455Z,24.10
2019-04-22T09:51:14.998Z,24.40
2019-04-22T09:53:47.107Z,25.10
2019-04-22T09:56:09.757Z,26.40
2019-04-22T09:58:44.371Z,26.60
2019-04-22T10:01:32.416Z,26.50
2019-04-22T10:03:48.132Z,26.10
2019-04-22T10:06:16.665Z,25.40
2019-04-22T10:08:52.726Z,26.00
2019-04-22T10:11:14.293Z,24.80
2019-04-22T10:13:40.994Z,25.40
2019-04-22T10:16:10.430Z,25.00
2019-04-22T10:18:39.152Z,25.20
2019-04-22T10:21:12.664Z,25.30
2019-04-22T10:23:42.314Z,26.30
2019-04-22T10:26:04.960Z,25.30
2019-04-22T10:28:40.019Z,26.50
2019-04-22T10:31:03.313Z,26.10
2019-04-22T10:33:25.780Z,26.00
2019-04-22T10:35:37.401Z,25.10
2019-04-22T10:38:05.977Z,25.00
2019-04-22T10:40:34.607Z,25.20
2019-04-22T10:43:03.172Z,25.80
2019-04-22T10:45:30.481Z,26.10
2019-04-22T10:47:58.382Z,25.20
2019-04-22T10:50:38.061Z,27.00
2019-04-22T10:53:06.169Z,28.60
2019-04-22T10:55:34.822Z,29.90
2019-04-22T11:00:29.824Z,27.80
2019-04-22T11:02:57.962Z,28.90
2019-04-22T11:05:26.164Z,28.50
2019-04-22T11:07:58.968Z,26.70
2019-04-22T11:10:36.827Z,25.80
2019-04-22T11:12:52.143Z,27.30
2019-04-22T11:15:20.302Z,28.40
2019-04-22T11:17:47.457Z,26.80
2019-04-22T11:20:24.009Z,26.20
2019-04-22T11:22:58.582Z,25.70
2019-04-22T11:25:34.113Z,25.30
2019-04-22T11:28:09.835Z,25.80
2019-04-22T11:30:44.919Z,26.20
2019-04-22T11:33:18.300Z,26.40
2019-04-22T11:35:53.481Z,26.10
2019-04-22T11:38:26.696Z,26.40
2019-04-22T11:41:01.878Z,25.50
2019-04-22T11:43:34.716Z,25.80
2019-04-22T11:46:11.434Z,24.60
2019-04-22T11:48:48.204Z,25.80
2019-04-22T11:51:22.128Z,25.70
2019-04-22T11:54:05.118Z,25.70
2019-04-22T11:56:38.990Z,26.20
2019-04-22T11:59:22.881Z,26.00
2019-04-22T12:01:52.820Z,25.00
2019-04-22T12:04:20.224Z,25.80
2019-04-22T12:06:47.496Z,25.80
2019-04-22T12:09:17.581Z,26.20
2019-04-22T12:11:45.028Z,28.50
2019-04-22T12:14:12.071Z,28.60
2019-04-22T12:16:39.488Z,26.70
2019-04-22T12:19:07.212Z,26.90
2019-04-22T12:21:35.544Z,28.40
2019-04-22T12:24:05.428Z,27.50
2019-04-22T12:26:32.849Z,27.10
2019-04-22T12:29:00.044Z,26.90
2019-04-22T12:31:27.546Z,26.90
2019-04-22T12:33:55.111Z,26.50
2019-04-22T12:36:22.795Z,26.10
2019-04-22T12:38:51.426Z,26.30
2019-04-22T12:41:19.709Z,25.60
2019-04-22T12:43:47.458Z,25.90
2019-04-22T12:46:16.221Z,25.50
2019-04-22T12:48:46.901Z,26.40
2019-04-22T12:51:15.350Z,26.10
2019-04-22T12:53:42.626Z,26.30
2019-04-22T12:56:10.974Z,27.00
2019-04-22T12:58:45.537Z,27.30
2019-04-22T13:01:13.108Z,26.40
2019-04-22T13:03:42.605Z,27.50
2019-04-22T13:06:09.984Z,27.30
2019-04-22T13:08:38.088Z,27.60
2019-04-22T13:11:11.750Z,27.90
2019-04-22T13:13:34.620Z,27.80
2019-04-22T13:16:02.798Z,27.00
2019-04-22T13:18:38.120Z,27.10
2019-04-22T13:21:00.407Z,26.00
2019-04-22T13:23:29.821Z,25.10
2019-04-22T13:25:57.069Z,25.50
2019-04-22T13:28:25.180Z,25.90
2019-04-22T13:30:52.697Z,26.00
2019-04-22T13:33:20.999Z,26.40
2019-04-22T13:35:48.177Z,25.50
2019-04-22T13:38:15.345Z,25.30
2019-04-22T13:40:59.226Z,25.90
2019-04-22T13:43:13.165Z,26.60
2019-04-22T13:45:40.744Z,26.10
2019-04-22T13:48:23.967Z,25.40
2019-04-22T13:51:09.637Z,26.00
2019-04-22T13:55:57.917Z,27.30
2019-04-22T13:58:18.449Z,28.10
2019-04-22T14:00:34.471Z,27.10
2019-04-22T14:03:22.526Z,27.10
2019-04-22T14:05:50.926Z,27.10
2019-04-22T14:08:19.960Z,27.60
2019-04-22T14:10:48.408Z,27.00
2019-04-22T14:13:16.119Z,27.70
2019-04-22T14:15:43.851Z,28.40
2019-04-22T14:18:11.117Z,26.50
2019-04-22T14:20:38.706Z,25.40
2019-04-22T14:23:06.641Z,26.40
2019-04-22T14:25:34.910Z,26.80
2019-04-22T14:28:09.148Z,26.60
2019-04-22T14:30:32.571Z,25.50
2019-04-22T14:33:00.395Z,25.70
2019-04-22T14:35:29.065Z,25.30
2019-04-22T14:37:56.506Z,25.20
2019-04-22T14:40:26.277Z,24.60
2019-04-22T14:43:14.889Z,24.20
2019-04-22T14:45:58.053Z,24.20
2019-04-22T14:48:13.690Z,24.40
2019-04-22T14:50:40.493Z,24.00
2019-04-22T14:53:09.797Z,23.40
2019-04-22T14:55:23.889Z,23.20
2019-04-22T14:57:49.015Z,22.90
2019-04-22T15:00:18.048Z,23.20
2019-04-22T15:02:46.051Z,23.20
2019-04-22T15:05:14.357Z,23.40
2019-04-22T15:07:43.225Z,23.10
2019-04-22T15:10:11.094Z,22.70
2019-04-22T15:12:44.566Z,22.60
2019-04-22T15:15:23.552Z,22.80
2019-04-22T15:17:58.843Z,23.00
2019-04-22T15:20:48.742Z,23.10
2019-04-22T15:23:14.889Z,23.10
2019-04-22T15:25:42.140Z,22.70
2019-04-22T15:28:11.127Z,22.70
2019-04-22T15:30:39.381Z,22.70
2019-04-22T15:33:07.440Z,22.60
2019-04-22T15:35:35.463Z,22.50
2019-04-22T15:38:04.511Z,22.40
2019-04-22T15:40:32.068Z,22.30
2019-04-22T15:42:59.289Z,22.20
2019-04-22T15:45:26.601Z,22.20
2019-04-22T15:47:53.888Z,22.20
2019-04-22T15:50:22.373Z,22.20
2019-04-22T15:52:53.252Z,22.00
2019-04-22T15:55:22.825Z,22.00
2019-04-22T15:57:50.116Z,21.90
2019-04-22T16:00:29.341Z,21.90
2019-04-22T16:02:47.601Z,21.90
2019-04-22T16:05:15.163Z,21.90
2019-04-22T16:07:42.335Z,21.70
2019-04-22T16:10:10.126Z,21.70
2019-04-22T16:12:49.371Z,21.60
2019-04-22T16:15:07.518Z,21.50
2019-04-22T16:17:37.086Z,21.60
2019-04-22T16:20:06.856Z,21.50
2019-04-22T16:22:55.021Z,21.50
2019-04-22T16:25:41.078Z,21.50
2019-04-22T16:28:08.981Z,21.50
2019-04-22T16:30:37.383Z,21.40
2019-04-22T16:33:05.723Z,21.30
2019-04-22T16:35:33.133Z,21.40
2019-04-22T16:38:01.026Z,21.20
2019-04-22T16:40:30.560Z,21.20
2019-04-22T16:43:01.969Z,21.20
2019-04-22T16:45:27.390Z,21.20
2019-04-22T16:47:55.611Z,21.00
2019-04-22T16:50:25.058Z,20.90
2019-04-22T16:52:52.476Z,20.80
2019-04-22T16:55:21.063Z,20.80
2019-04-22T16:57:48.375Z,20.80
2019-04-22T17:00:16.602Z,20.60
2019-04-22T17:03:09.154Z,20.60
2019-04-22T17:05:54.219Z,20.50
2019-04-22T17:08:24.404Z,20.50
2019-04-22T17:10:51.965Z,20.30
2019-04-22T17:13:23.344Z,20.20
2019-04-22T17:15:49.429Z,20.20
2019-04-22T17:18:17.184Z,20.10
2019-04-22T17:20:44.742Z,20.10
2019-04-22T17:23:11.901Z,19.90
2019-04-22T17:25:40.398Z,19.80
2019-04-22T17:28:07.840Z,19.70
2019-04-22T17:30:36.007Z,19.60
2019-04-22T17:33:04.817Z,19.50
2019-04-22T17:35:34.028Z,19.50
2019-04-22T17:38:10.127Z,19.50
2019-04-22T17:40:49.431Z,19.40
2019-04-22T17:43:32.646Z,19.30
2019-04-22T17:46:19.502Z,19.30
2019-04-22T17:49:12.152Z,19.20
2019-04-22T17:51:36.706Z,19.10
2019-04-22T17:54:12.040Z,19.00
2019-04-22T17:56:37.600Z,18.90
2019-04-22T17:59:10.452Z,18.80
2019-04-22T18:01:32.655Z,18.70
2019-04-22T18:03:49.820Z,18.60
2019-04-22T18:06:42.639Z,18.50
2019-04-22T18:09:03.612Z,18.40
2019-04-22T18:11:41.523Z,18.20
2019-04-22T18:14:11.592Z,18.10
2019-04-22T18:16:34.452Z,17.90
2019-04-22T18:19:00.559Z,17.90
2019-04-22T18:21:23.216Z,17.80
2019-04-22T18:23:52.059Z,17.70
2019-04-22T18:26:27.635Z,17.60
2019-04-22T18:28:54.352Z,17.50
2019-04-22T18:31:17.405Z,17.40
2019-04-22T18:33:50.371Z,17.20
2019-04-22T18:36:19.655Z,17.10
2019-04-22T18:38:58.690Z,16.90
2019-04-22T18:41:17.833Z,16.80
2019-04-22T18:44:00.511Z,16.70
2019-04-22T18:46:20.900Z,16.40
2019-04-22T18:48:53.951Z,16.30
2019-04-22T18:51:28.960Z,16.40
2019-04-22T18:54:30.996Z,16.50
2019-04-22T18:56:57.060Z,16.60
2019-04-22T18:59:14.622Z,16.60
2019-04-22T19:01:37.789Z,16.50
2019-04-22T19:04:12.936Z,16.50
2019-04-22T19:06:55.685Z,16.60
2019-04-22T19:09:40.394Z,16.60
2019-04-22T19:12:10.330Z,16.70
2019-04-22T19:14:33.478Z,16.70
2019-04-22T19:17:08.238Z,16.70
2019-04-22T19:21:56.029Z,16.60
2019-04-22T19:24:19.694Z,16.60
2019-04-22T19:29:28.554Z,16.50
2019-04-22T19:31:52.325Z,16.40
2019-04-22T19:34:23.373Z,16.50
2019-04-22T19:36:51.614Z,16.50
2019-04-22T19:39:11.791Z,16.30
2019-04-22T19:41:53.676Z,16.20
2019-04-22T19:44:20.125Z,16.20
2019-04-22T19:46:53.235Z,16.30
2019-04-22T19:49:29.356Z,16.30
2019-04-22T19:51:52.647Z,16.30
2019-04-22T19:54:15.697Z,16.30
2019-04-22T19:56:36.467Z,16.40
2019-04-22T19:59:12.358Z,16.40
2019-04-22T20:01:56.886Z,16.40
2019-04-22T20:04:41.912Z,16.60
2019-04-22T20:07:09.474Z,16.60
2019-04-22T20:09:43.743Z,16.40
2019-04-22T20:12:04.525Z,16.40
2019-04-22T20:14:43.696Z,16.50
2019-04-22T20:17:02.606Z,16.40
2019-04-22T20:22:03.501Z,16.10
2019-04-22T20:24:20.730Z,16.00
2019-04-22T20:27:02.975Z,15.90
2019-04-22T20:29:40.090Z,15.80
2019-04-22T20:32:05.318Z,15.70
2019-04-22T20:34:35.519Z,15.60
2019-04-22T20:39:33.187Z,15.40
2019-04-22T20:42:14.781Z,15.20
2019-04-22T20:44:35.311Z,15.10
2019-04-22T20:46:59.026Z,15.00
2019-04-22T20:49:33.782Z,14.90
2019-04-22T20:52:08.042Z,14.80
2019-04-22T20:54:22.993Z,14.80
2019-04-22T20:56:51.611Z,14.70
2019-04-22T20:59:23.791Z,14.80
2019-04-22T21:01:54.948Z,14.90
2019-04-22T21:04:11.481Z,15.00
2019-04-22T21:06:47.743Z,15.00
2019-04-22T21:09:22.043Z,15.00
2019-04-22T21:11:49.407Z,15.10
2019-04-22T21:14:14.784Z,15.10
2019-04-22T21:16:53.230Z,15.00
2019-04-22T21:19:29.745Z,15.10
2019-04-22T21:21:50.243Z,15.00
2019-04-22T21:24:18.110Z,15.00
2019-04-22T21:26:45.376Z,14.90
2019-04-22T21:29:12.986Z,14.90
2019-04-22T21:31:46.457Z,15.00
2019-04-22T21:34:10.319Z,14.90
2019-04-22T21:36:46.199Z,15.00
2019-04-22T21:39:10.992Z,14.90
2019-04-22T21:41:44.596Z,14.90
2019-04-22T21:44:10.331Z,14.80
2019-04-22T21:46:44.328Z,14.90
2019-04-22T21:49:10.872Z,14.80
2019-04-22T21:51:43.252Z,14.90
2019-04-22T21:57:01.769Z,14.90
2019-04-22T21:59:17.604Z,14.60
2019-04-22T22:04:20.653Z,14.60
2019-04-22T22:06:41.258Z,14.70
2019-04-22T22:09:20.495Z,14.70
2019-04-22T22:11:49.145Z,14.40
2019-04-22T22:14:18.085Z,14.50
2019-04-22T22:16:43.511Z,14.40
2019-04-22T22:19:17.178Z,14.40
2019-04-22T22:21:51.352Z,14.30
2019-04-22T22:24:21.131Z,14.20
2019-04-22T22:26:45.774Z,14.20
2019-04-22T22:29:20.196Z,14.20
2019-04-22T22:31:47.051Z,14.10
2019-04-22T22:34:13.668Z,14.10
2019-04-22T22:36:36.354Z,14.10
2019-04-22T22:39:05.726Z,14.00
2019-04-22T22:41:19.009Z,13.90
2019-04-22T22:43:51.029Z,13.90
2019-04-22T22:46:29.235Z,13.80
2019-04-22T22:49:09.865Z,13.80
2019-04-22T22:51:40.270Z,13.80
2019-04-22T22:54:03.864Z,13.80
2019-04-22T22:56:42.243Z,13.70
2019-04-22T22:59:02.865Z,13.60
2019-04-22T23:01:37.402Z,13.60
2019-04-22T23:04:02.505Z,13.70
2019-04-22T23:06:32.865Z,13.60
2019-04-22T23:09:05.705Z,13.50
2019-04-22T23:11:50.807Z,13.70
2019-04-22T23:13:56.840Z,13.50
2019-04-22T23:16:18.249Z,13.40
2019-04-22T23:18:55.388Z,13.40
2019-04-22T23:21:31.275Z,13.30
2019-04-22T23:24:12.894Z,13.20
2019-04-22T23:26:42.219Z,13.10
2019-04-22T23:29:24.916Z,13.00
2019-04-22T23:32:00.381Z,13.00
2019-04-22T23:34:26.660Z,13.00
2019-04-22T23:37:22.767Z,13.00
2019-04-22T23:39:59.016Z,12.80
2019-04-22T23:42:27.398Z,12.80
2019-04-22T23:44:56.973Z,12.80
2019-04-22T23:47:26.430Z,12.80
2019-04-22T23:50:01.027Z,12.80
2019-04-22T23:52:35.657Z,12.70
2019-04-22T23:55:06.864Z,12.70
2019-04-22T23:57:34.780Z,12.70
